KFLD/FLD METAR and TAF weather

Enter ICAO airport designator
Station Type Date Time Source
KFLD METAR 2021/07/28 03:53 UTC NOAA

KFLD 280353Z AUTO 15003KT 10SM CLR 24/17 A3002 RMK AO2 SLP159 T02390167


Station Type Date Time Source
KFLD Decoded METAR 2021/07/28 03:53 UTC NOAA

FOND DU LAC COUNTY AIRPORT, WI, United States (KFLD) 43-46N 88-29W 240M
Jul 27, 2021 - 11:53 PM EDT / 2021.07.28 0353 UTC
Wind: from the SSE (150 degrees) at 3 MPH (3 KT):0
Visibility: 10 mile(s):0
Sky conditions: clear
Temperature: 75.0 F (23.9 C)
Dew Point: 62.1 F (16.7 C)
Relative Humidity: 64%
Pressure (altimeter): 30.02 in. Hg (1016 hPa)
ob: KFLD 280353Z AUTO 15003KT 10SM CLR 24/17 A3002 RMK AO2 SLP159 T02390167
cycle: 4

Station Type Date Time Source
KFLD TAF UTC NOAA

Error!

Example: see airport list